createdAt,value
2022-12-07T00:01:52.780Z,19.88
2022-12-07T00:04:55.043Z,21.53
2022-12-07T00:07:57.280Z,21.58
2022-12-07T00:11:11.091Z,19.33
2022-12-07T00:14:15.249Z,19.90
2022-12-07T00:17:17.415Z,18.58
2022-12-07T00:20:19.831Z,20.13
2022-12-07T00:23:22.067Z,18.98
2022-12-07T00:26:27.100Z,21.55
2022-12-07T00:29:29.363Z,21.98
2022-12-07T00:32:31.566Z,21.52
2022-12-07T00:35:33.750Z,22.43
2022-12-07T00:38:37.441Z,20.80
2022-12-07T00:41:39.655Z,24.88
2022-12-07T00:44:41.921Z,19.23
2022-12-07T00:47:44.105Z,24.48
2022-12-07T00:50:46.330Z,23.23
2022-12-07T00:53:48.783Z,28.40
2022-12-07T00:56:50.955Z,27.00
2022-12-07T00:59:56.348Z,25.08
2022-12-07T01:02:58.632Z,24.60
2022-12-07T01:06:01.003Z,25.03
2022-12-07T01:09:04.873Z,25.40
2022-12-07T01:12:07.208Z,27.63
2022-12-07T01:15:09.827Z,28.08
2022-12-07T01:18:12.344Z,26.33
2022-12-07T01:21:19.848Z,25.30
2022-12-07T01:24:22.047Z,20.48
2022-12-07T01:27:24.215Z,28.27
2022-12-07T01:30:26.505Z,27.80
2022-12-07T01:33:31.283Z,23.38
2022-12-07T01:36:35.755Z,27.40
2022-12-07T01:39:37.979Z,25.92
2022-12-07T01:42:40.206Z,27.08
2022-12-07T01:45:43.026Z,27.88
2022-12-07T01:48:45.236Z,25.90
2022-12-07T01:51:48.777Z,27.13
2022-12-07T01:54:54.645Z,27.63
2022-12-07T01:57:57.135Z,29.55
2022-12-07T02:01:00.160Z,30.15
2022-12-07T02:04:02.807Z,30.33
2022-12-07T02:07:05.940Z,30.60
2022-12-07T02:10:18.899Z,33.38
2022-12-07T02:13:23.780Z,33.08
2022-12-07T02:16:56.272Z,34.85
2022-12-07T02:20:09.220Z,31.75
2022-12-07T02:23:17.468Z,35.50
2022-12-07T02:26:50.779Z,32.88
2022-12-07T02:30:09.638Z,30.20
2022-12-07T02:33:16.960Z,33.60
2022-12-07T02:36:31.303Z,32.15
2022-12-07T02:40:11.380Z,31.83
2022-12-07T02:43:18.407Z,29.02
2022-12-07T02:46:27.105Z,33.28
2022-12-07T02:49:30.741Z,33.75
2022-12-07T02:52:32.962Z,30.10
2022-12-07T02:55:38.603Z,32.17
2022-12-07T02:59:06.948Z,32.55
2022-12-07T03:02:21.492Z,30.23
2022-12-07T03:05:39.019Z,29.52
2022-12-07T03:09:04.848Z,31.13
2022-12-07T03:12:15.622Z,29.87
2022-12-07T03:15:33.445Z,32.67
2022-12-07T03:18:41.173Z,30.33
2022-12-07T03:21:50.989Z,32.88
2022-12-07T03:24:59.351Z,29.63
2022-12-07T03:28:05.296Z,32.40
2022-12-07T03:31:20.998Z,29.45
2022-12-07T03:34:28.116Z,32.08
2022-12-07T03:37:34.481Z,29.95
2022-12-07T03:40:45.785Z,29.35
2022-12-07T03:43:48.024Z,27.17
2022-12-07T03:47:02.349Z,29.02
2022-12-07T03:50:26.879Z,32.03
2022-12-07T03:53:55.997Z,28.05
2022-12-07T03:56:58.842Z,31.70
2022-12-07T04:00:02.842Z,33.03
2022-12-07T04:03:14.277Z,33.30
2022-12-07T04:06:16.573Z,33.63
2022-12-07T04:09:19.086Z,31.77
2022-12-07T04:12:22.104Z,31.17
2022-12-07T04:15:24.493Z,31.47
2022-12-07T04:18:26.712Z,32.00
2022-12-07T04:21:28.951Z,30.05
2022-12-07T04:24:31.267Z,31.00
2022-12-07T04:27:33.507Z,28.58
2022-12-07T04:30:35.667Z,29.50
2022-12-07T04:33:37.853Z,30.10
2022-12-07T04:36:40.660Z,30.13
2022-12-07T04:39:44.819Z,31.73
2022-12-07T04:42:47.023Z,33.10
2022-12-07T04:45:49.682Z,32.37
2022-12-07T04:48:53.080Z,31.13
2022-12-07T04:51:55.300Z,29.73
2022-12-07T04:54:57.574Z,26.83
2022-12-07T04:57:59.781Z,27.23
2022-12-07T05:01:02.012Z,29.07
2022-12-07T05:04:04.365Z,24.38
2022-12-07T05:07:06.526Z,21.00
2022-12-07T05:10:09.152Z,18.17
2022-12-07T05:13:11.385Z,16.98
2022-12-07T05:16:13.568Z,16.60
2022-12-07T05:19:15.917Z,20.63
2022-12-07T05:22:18.103Z,17.95
2022-12-07T05:25:20.362Z,16.77
2022-12-07T05:28:22.512Z,16.90
2022-12-07T05:31:25.638Z,19.63
2022-12-07T05:34:27.859Z,17.60
2022-12-07T05:37:30.084Z,13.65
2022-12-07T05:40:32.446Z,15.07
2022-12-07T05:43:34.765Z,14.45
2022-12-07T05:46:37.281Z,14.80
2022-12-07T05:49:39.493Z,14.35
2022-12-07T05:52:41.737Z,16.55
2022-12-07T05:55:44.406Z,16.88
2022-12-07T05:59:04.899Z,16.10
2022-12-07T06:02:12.801Z,15.23
2022-12-07T06:05:15.130Z,15.65
2022-12-07T06:08:17.437Z,16.05
2022-12-07T06:11:37.917Z,17.45
2022-12-07T06:14:40.840Z,16.13
2022-12-07T06:17:43.028Z,15.87
2022-12-07T06:20:45.205Z,20.45
2022-12-07T06:23:48.866Z,18.85
2022-12-07T06:26:51.031Z,17.90
2022-12-07T06:29:53.293Z,19.60
2022-12-07T06:32:55.453Z,20.10
2022-12-07T06:35:57.646Z,18.95
2022-12-07T06:38:59.833Z,20.92
2022-12-07T06:42:02.019Z,22.33
2022-12-07T06:45:04.600Z,20.65
2022-12-07T06:48:06.778Z,20.40
2022-12-07T06:51:09.298Z,19.67
2022-12-07T06:54:12.365Z,26.17
2022-12-07T06:57:14.578Z,21.67
2022-12-07T07:00:21.826Z,23.88
2022-12-07T07:03:24.665Z,23.73
2022-12-07T07:06:26.838Z,24.40
2022-12-07T07:09:29.050Z,24.27
2022-12-07T07:12:31.239Z,22.15
2022-12-07T07:15:34.031Z,24.65
2022-12-07T07:18:36.323Z,23.33
2022-12-07T07:21:38.471Z,26.05
2022-12-07T07:24:40.944Z,24.02
2022-12-07T07:27:43.176Z,25.40
2022-12-07T07:30:46.009Z,27.27
2022-12-07T07:33:48.670Z,24.93
2022-12-07T07:36:50.895Z,25.65
2022-12-07T07:39:53.172Z,25.42
2022-12-07T07:42:55.494Z,25.23
2022-12-07T07:45:59.552Z,24.20
2022-12-07T07:49:01.795Z,24.90
2022-12-07T07:52:04.612Z,27.60
2022-12-07T07:55:09.612Z,19.20
2022-12-07T07:58:11.808Z,25.08
2022-12-07T08:01:14.718Z,23.92
2022-12-07T08:04:17.264Z,32.53
2022-12-07T08:07:19.621Z,37.88
2022-12-07T08:10:21.834Z,28.60
2022-12-07T08:13:30.632Z,27.20
2022-12-07T08:16:33.433Z,30.27
2022-12-07T08:19:35.907Z,20.70
2022-12-07T08:22:38.087Z,31.67
2022-12-07T08:25:40.548Z,23.27
2022-12-07T08:28:43.202Z,25.67
2022-12-07T08:31:45.452Z,22.25
2022-12-07T08:34:47.674Z,23.17
2022-12-07T08:37:49.878Z,28.05
2022-12-07T08:40:56.801Z,23.27
2022-12-07T08:43:59.028Z,26.48
2022-12-07T08:47:04.182Z,25.67
2022-12-07T08:50:08.298Z,31.40
2022-12-07T08:53:10.563Z,26.35
2022-12-07T08:56:13.027Z,28.17
2022-12-07T08:59:16.115Z,24.85
2022-12-07T09:02:18.330Z,26.10
2022-12-07T09:05:20.649Z,19.67
2022-12-07T09:08:28.035Z,16.08
2022-12-07T09:11:30.657Z,16.30
2022-12-07T09:14:32.957Z,12.48
2022-12-07T09:17:36.629Z,10.18
2022-12-07T09:20:38.866Z,10.10
2022-12-07T09:23:42.660Z,7.88
2022-12-07T09:26:45.494Z,8.05
2022-12-07T09:29:47.730Z,8.15
2022-12-07T09:32:50.070Z,7.00
2022-12-07T09:35:52.979Z,7.63
2022-12-07T09:38:55.412Z,7.07
2022-12-07T09:41:58.771Z,6.18
2022-12-07T09:45:01.291Z,6.90
2022-12-07T09:48:04.644Z,6.28
2022-12-07T09:51:24.224Z,7.87
2022-12-07T09:54:27.201Z,6.22
2022-12-07T09:57:31.762Z,6.32
2022-12-07T10:00:33.915Z,6.93
2022-12-07T10:03:36.945Z,6.65
2022-12-07T10:06:39.863Z,5.90
2022-12-07T10:09:42.126Z,7.38
2022-12-07T10:12:55.224Z,6.50
2022-12-07T10:16:06.323Z,6.43
2022-12-07T10:19:20.082Z,6.63
2022-12-07T10:22:23.018Z,6.83
2022-12-07T10:25:33.910Z,6.60
2022-12-07T10:28:41.818Z,7.05
2022-12-07T10:31:45.510Z,8.32
2022-12-07T10:34:52.091Z,7.57
2022-12-07T10:37:56.359Z,7.87
2022-12-07T10:41:08.718Z,7.32
2022-12-07T10:44:22.438Z,8.68
2022-12-07T10:47:24.730Z,10.23
2022-12-07T10:50:27.103Z,9.45
2022-12-07T10:53:41.341Z,10.23
2022-12-07T10:57:05.325Z,9.95
2022-12-07T11:00:13.880Z,9.50
2022-12-07T11:03:28.174Z,6.65
2022-12-07T11:06:41.068Z,5.68
2022-12-07T11:10:22.008Z,5.57
2022-12-07T11:13:50.398Z,5.53
2022-12-07T11:17:22.070Z,4.38
2022-12-07T11:20:38.778Z,4.55
2022-12-07T11:24:07.160Z,5.43
2022-12-07T11:27:27.370Z,5.23
2022-12-07T11:31:00.725Z,7.65
2022-12-07T11:34:31.208Z,14.05
2022-12-07T11:40:45.024Z,11.35
2022-12-07T11:44:02.215Z,8.73
2022-12-07T11:47:07.459Z,7.75
2022-12-07T11:50:28.354Z,8.80
2022-12-07T11:53:42.525Z,8.60
2022-12-07T11:56:45.089Z,9.18
2022-12-07T11:59:51.702Z,11.07
2022-12-07T12:03:01.396Z,10.43
2022-12-07T12:06:03.687Z,10.80
2022-12-07T12:17:01.274Z,8.90
2022-12-07T12:20:29.261Z,10.65
2022-12-07T12:23:52.130Z,9.85
2022-12-07T12:27:21.164Z,11.02
2022-12-07T12:30:40.907Z,8.50
2022-12-07T12:33:54.652Z,8.70
2022-12-07T12:37:03.249Z,8.40
2022-12-07T12:40:17.279Z,8.77
2022-12-07T12:43:53.865Z,10.32
2022-12-07T12:47:01.022Z,10.23
2022-12-07T12:50:18.966Z,9.63
2022-12-07T12:53:28.007Z,11.57
2022-12-07T12:56:30.367Z,10.32
2022-12-07T12:59:34.840Z,9.48
2022-12-07T13:02:39.569Z,9.73
2022-12-07T13:05:45.098Z,10.23
2022-12-07T13:08:47.611Z,10.02
2022-12-07T13:11:51.428Z,8.30
2022-12-07T13:15:32.746Z,6.47
2022-12-07T13:18:35.019Z,7.68
2022-12-07T13:21:43.740Z,5.87
2022-12-07T13:24:47.402Z,6.70
2022-12-07T13:28:19.219Z,6.50
2022-12-07T13:31:33.597Z,6.45
2022-12-07T13:34:41.040Z,7.65
2022-12-07T13:37:43.285Z,7.37
2022-12-07T13:41:20.501Z,9.40
2022-12-07T13:44:23.393Z,7.07
2022-12-07T13:47:40.577Z,7.55
2022-12-07T13:50:42.879Z,9.60
2022-12-07T13:53:50.717Z,7.70
2022-12-07T13:56:54.264Z,9.25
2022-12-07T13:59:57.252Z,9.18
2022-12-07T14:03:06.031Z,9.43
2022-12-07T14:06:17.516Z,8.32
2022-12-07T14:09:25.495Z,11.90
2022-12-07T14:12:29.242Z,7.70
2022-12-07T14:15:33.735Z,8.00
2022-12-07T14:18:43.182Z,7.78
2022-12-07T14:21:46.390Z,12.73
2022-12-07T14:24:49.777Z,7.80
2022-12-07T14:28:01.577Z,9.23
2022-12-07T14:31:08.875Z,8.48
2022-12-07T14:34:14.931Z,8.60
2022-12-07T14:37:17.831Z,8.32
2022-12-07T14:40:22.961Z,10.40
2022-12-07T14:43:25.951Z,8.63
2022-12-07T14:46:28.978Z,9.55
2022-12-07T14:56:06.790Z,9.93
2022-12-07T14:59:09.787Z,9.60
2022-12-07T15:02:14.619Z,9.43
2022-12-07T15:05:19.139Z,10.93
2022-12-07T15:08:22.576Z,10.63
2022-12-07T15:11:25.002Z,14.43
2022-12-07T15:14:27.832Z,10.98
2022-12-07T15:17:32.453Z,14.93
2022-12-07T15:20:35.655Z,12.80
2022-12-07T15:23:38.551Z,10.70
2022-12-07T15:26:42.043Z,12.70
2022-12-07T15:29:45.139Z,11.98
2022-12-07T15:32:54.484Z,11.63
2022-12-07T15:35:57.580Z,9.55
2022-12-07T15:39:15.910Z,13.10
2022-12-07T15:42:18.916Z,12.37
2022-12-07T15:45:21.915Z,23.77
2022-12-07T15:48:29.157Z,16.13
2022-12-07T15:51:32.617Z,13.70
2022-12-07T15:54:35.604Z,18.08
2022-12-07T15:57:39.932Z,29.67
2022-12-07T16:00:44.979Z,14.82
2022-12-07T16:03:50.437Z,13.95
2022-12-07T16:06:52.735Z,18.73
2022-12-07T16:09:54.930Z,16.40
2022-12-07T16:12:57.174Z,15.13
2022-12-07T16:16:02.727Z,16.05
2022-12-07T16:19:05.352Z,17.17
2022-12-07T16:22:07.629Z,19.13
2022-12-07T16:25:10.089Z,18.27
2022-12-07T16:28:12.258Z,21.27
2022-12-07T16:31:16.529Z,18.60
2022-12-07T16:34:19.632Z,18.88
2022-12-07T16:37:21.866Z,20.58
2022-12-07T16:40:24.145Z,36.00
2022-12-07T16:43:26.497Z,24.53
2022-12-07T16:46:36.990Z,22.65
2022-12-07T16:49:46.910Z,19.23
2022-12-07T16:52:52.789Z,37.70
2022-12-07T16:55:55.145Z,31.88
2022-12-07T16:58:59.842Z,20.63
2022-12-07T17:02:08.575Z,20.23
2022-12-07T17:05:10.756Z,25.17
2022-12-07T17:08:36.149Z,28.50
2022-12-07T17:11:38.567Z,27.63
2022-12-07T17:15:01.706Z,33.03
2022-12-07T17:18:08.296Z,23.73
2022-12-07T17:21:14.137Z,25.20
2022-12-07T17:24:19.517Z,24.90
2022-12-07T17:27:21.980Z,28.95
2022-12-07T17:30:26.672Z,31.60
2022-12-07T17:33:42.755Z,32.55
2022-12-07T17:36:50.199Z,38.47
2022-12-07T17:39:57.134Z,34.17
2022-12-07T17:43:08.579Z,29.98
2022-12-07T17:46:16.492Z,32.40
2022-12-07T17:49:19.647Z,30.67
2022-12-07T17:52:49.150Z,26.63
2022-12-07T17:56:27.091Z,24.98
2022-12-07T17:59:19.705Z,30.95
2022-12-07T18:02:22.398Z,34.90
2022-12-07T18:05:24.828Z,60.70
2022-12-07T18:08:27.416Z,43.38
2022-12-07T18:11:30.631Z,42.08
2022-12-07T18:14:33.519Z,42.38
2022-12-07T18:17:36.742Z,40.13
2022-12-07T18:20:39.606Z,36.30
2022-12-07T18:23:44.085Z,44.50
2022-12-07T18:26:48.132Z,46.92
2022-12-07T18:29:50.975Z,46.03
2022-12-07T18:32:54.124Z,63.80
2022-12-07T18:35:56.825Z,63.92
2022-12-07T18:39:02.448Z,70.63
2022-12-07T18:42:06.185Z,67.20
2022-12-07T18:45:12.793Z,75.32
2022-12-07T18:48:16.568Z,75.67
2022-12-07T18:51:21.055Z,78.97
2022-12-07T18:54:23.715Z,78.57
2022-12-07T18:57:26.468Z,74.97
2022-12-07T19:00:31.878Z,65.45
2022-12-07T19:03:34.614Z,76.93
2022-12-07T19:06:37.271Z,63.67
2022-12-07T19:09:40.331Z,63.28
2022-12-07T19:12:46.437Z,60.60
2022-12-07T19:15:49.874Z,60.65
2022-12-07T19:18:52.972Z,72.77
2022-12-07T19:21:56.141Z,75.78
2022-12-07T19:24:58.926Z,72.10
2022-12-07T19:28:02.177Z,74.05
2022-12-07T19:31:09.376Z,69.57
2022-12-07T19:34:15.736Z,67.03
2022-12-07T19:37:19.098Z,70.85
2022-12-07T19:40:22.111Z,52.88
2022-12-07T19:43:25.121Z,54.78
2022-12-07T19:46:29.900Z,70.50
2022-12-07T19:49:37.348Z,67.73
2022-12-07T19:52:43.418Z,63.63
2022-12-07T19:55:47.012Z,65.38
2022-12-07T19:58:50.323Z,64.45
2022-12-07T20:01:53.773Z,73.90
2022-12-07T20:05:00.508Z,78.27
2022-12-07T20:08:08.572Z,74.32
2022-12-07T20:11:29.924Z,104.80
2022-12-07T20:14:33.866Z,92.32
2022-12-07T20:17:38.587Z,84.18
2022-12-07T20:20:45.465Z,93.77
2022-12-07T20:23:49.783Z,105.20
2022-12-07T20:26:57.713Z,106.22
2022-12-07T20:30:01.069Z,96.25
2022-12-07T20:33:04.750Z,99.80
2022-12-07T20:36:09.441Z,99.80
2022-12-07T20:39:14.268Z,107.75
2022-12-07T20:42:36.070Z,100.70
2022-12-07T20:45:49.537Z,99.30
2022-12-07T20:48:54.121Z,95.25
2022-12-07T20:51:57.516Z,89.70
2022-12-07T20:55:01.688Z,87.30
2022-12-07T20:58:06.635Z,98.80
2022-12-07T21:01:09.294Z,88.75
2022-12-07T21:04:13.180Z,87.55
2022-12-07T21:07:15.724Z,81.00
2022-12-07T21:10:18.185Z,86.00
2022-12-07T21:13:20.444Z,79.90
2022-12-07T21:16:28.197Z,82.10
2022-12-07T21:19:30.741Z,79.80
2022-12-07T21:22:33.008Z,80.20
2022-12-07T21:25:35.183Z,78.13
2022-12-07T21:28:37.481Z,77.40
2022-12-07T21:31:39.788Z,80.97
2022-12-07T21:34:42.155Z,75.60
2022-12-07T21:37:44.398Z,70.50
2022-12-07T21:40:46.605Z,71.00
2022-12-07T21:43:49.452Z,71.13
2022-12-07T21:46:51.683Z,70.38
2022-12-07T21:49:53.954Z,69.53
2022-12-07T21:52:56.324Z,64.23
2022-12-07T21:55:58.549Z,64.72
2022-12-07T21:59:21.074Z,67.78
2022-12-07T22:02:23.300Z,72.10
2022-12-07T22:05:25.508Z,62.25
2022-12-07T22:08:28.376Z,69.43
2022-12-07T22:11:30.601Z,63.58
2022-12-07T22:14:51.044Z,60.83
2022-12-07T22:17:53.610Z,49.13
2022-12-07T22:21:00.273Z,60.97
2022-12-07T22:24:04.989Z,54.67
2022-12-07T22:27:07.196Z,45.13
2022-12-07T22:30:11.412Z,53.42
2022-12-07T22:33:13.574Z,58.88
2022-12-07T22:36:16.479Z,58.38
2022-12-07T22:39:18.818Z,52.20
2022-12-07T22:42:21.113Z,55.28
2022-12-07T22:45:23.363Z,57.40
2022-12-07T22:48:26.489Z,53.25
2022-12-07T22:51:30.903Z,56.00
2022-12-07T22:54:33.094Z,48.63
2022-12-07T22:57:35.277Z,54.80
2022-12-07T23:00:37.460Z,52.50
2022-12-07T23:03:40.229Z,53.67
2022-12-07T23:06:42.510Z,54.08
2022-12-07T23:09:44.808Z,49.63
2022-12-07T23:13:06.016Z,46.10
2022-12-07T23:16:13.693Z,46.53
2022-12-07T23:19:16.040Z,44.70
2022-12-07T23:22:18.211Z,45.03
2022-12-07T23:25:20.442Z,42.07
2022-12-07T23:28:22.689Z,50.03
2022-12-07T23:31:25.400Z,49.30
2022-12-07T23:34:27.696Z,52.13
2022-12-07T23:37:29.876Z,51.00
2022-12-07T23:40:32.049Z,53.43
2022-12-07T23:43:35.739Z,53.40
2022-12-07T23:46:37.981Z,51.80
2022-12-07T23:49:40.437Z,50.95
2022-12-07T23:52:42.590Z,46.35
2022-12-07T23:55:45.895Z,47.97
2022-12-07T23:58:49.469Z,45.78
